KSKF

Lackland Air Force Base

Airport
ICAO code
KSKF
IATA Code
SKF
Summary
ICAO Region
NAM
ICAO Territory
Location

San Antonio, Texas

Serving
San Antonio
Elevation
691 ft
Coordinates
29° 23' 11" N , 98° 34' 53" W
KCC
Metar
KSKF 222220Z AUTO 11014G19KT 10SM SCT065 SCT085 33/21 A2988 RMK AO2 SLP110 $

Lackland Air Force Base is a United States Air Force facility located in San Antonio, Texas. Lackland is part of Joint Base San Antonio, an amalgamation of the United States Army Fort Sam Houston, the United States Air Force Randolph Air Force Base and Lackland Air Force Base, which were merged on 1 October 2010.

Runways

Designator Length Width Surface Rops
15/33 3520 91 CON Yes/Yes

Airport map

Aerial View

SKYbrary Partners:

Safety knowledge contributed by: